Terminal Aerodrome Forecast
Issued by NWS

Home | Current Version | Previous Version | Text Only | Print | Product List | Glossary On
Versions: 1 2 3 4 5 6 7 8 9 10 11 12 13 14 15 16
000
FTUS43 KPAH 261241 AAA
TAFCGI
TAF AMD
KCGI 261241Z 2613/2712 VRB03KT P6SM BKN030 BKN250
     FM261400 VRB04KT P6SM VCTS BKN040CB BKN150
     FM270000 VRB02KT P6SM SCT100 SCT250=

USA.gov is the U.S. government's official web portal to all federal, state and local government web resources and services.